Time;durP1;ratioP1;P1;durP2;ratioP2;P2;SDS_P1;SDS_P2;PMS_P1;PMS_P2;Temp;Humidity;BMP_temperature;BMP_pressure;BME280_temperature;BME280_humidity;BME280_pressure;Samples;Min_cycle;Max_cycle;Signal;HPM_P1;HPM_P2
2022/05/20 00:00:25;;;;;;;8.35;3.97;;;;;;;;;;6256056;28;20048;-59
2022/05/20 00:03:38;;;;;;;7.70;3.63;;;;;;;;;;6261758;28;20041;-62
2022/05/20 00:06:39;;;;;;;10.63;4.13;;;;;;;;;;6254325;28;20064;-55
2022/05/20 00:09:40;;;;;;;6.17;3.30;;;;;;;;;;6259840;28;20060;-57
2022/05/20 00:12:41;;;;;;;6.68;3.00;;;;;;;;;;6258884;28;20053;-54
2022/05/20 00:15:41;;;;;;;8.80;2.83;;;;;;;;;;6256767;28;20081;-53
2022/05/20 00:18:42;;;;;;;6.25;3.20;;;;;;;;;;6256462;28;20056;-59
2022/05/20 00:21:43;;;;;;;7.40;2.92;;;;;;;;;;6262025;28;20124;-59
2022/05/20 00:28:02;;;;;;;11.02;3.20;;;;;;;;;;6258830;28;20476;-61
2022/05/20 00:31:09;;;;;;;6.85;3.25;;;;;;;;;;6260040;28;20052;-55
2022/05/20 00:34:10;;;;;;;7.72;2.70;;;;;;;;;;6255273;28;20053;-61
2022/05/20 00:37:11;;;;;;;6.87;3.07;;;;;;;;;;6255792;28;20099;-56
2022/05/20 00:40:14;;;;;;;6.57;3.05;;;;;;;;;;6258487;28;20045;-58
2022/05/20 00:43:29;;;;;;;6.25;2.83;;;;;;;;;;6258949;28;20108;-59
2022/05/20 00:46:30;;;;;;;6.30;2.90;;;;;;;;;;6256714;28;20056;-59
2022/05/20 00:49:32;;;;;;;7.63;3.15;;;;;;;;;;6259598;28;20404;-62
2022/05/20 00:52:37;;;;;;;6.10;2.70;;;;;;;;;;6258346;28;20053;-54
2022/05/20 00:55:38;;;;;;;8.40;2.85;;;;;;;;;;6263006;28;20083;-55
2022/05/20 00:58:40;;;;;;;6.70;2.50;;;;;;;;;;6260778;28;20049;-63
2022/05/20 01:01:41;;;;;;;7.75;3.17;;;;;;;;;;6261792;28;20064;-61
2022/05/20 01:04:43;;;;;;;7.50;3.13;;;;;;;;;;6262060;28;20132;-59
2022/05/20 01:07:44;;;;;;;8.27;3.10;;;;;;;;;;6264249;28;20087;-55
2022/05/20 01:10:45;;;;;;;7.60;2.97;;;;;;;;;;6259436;28;20045;-54
2022/05/20 01:13:48;;;;;;;9.15;3.00;;;;;;;;;;6264970;28;20057;-61
2022/05/20 01:16:48;;;;;;;8.40;2.85;;;;;;;;;;6263660;28;20071;-62
2022/05/20 01:19:53;;;;;;;7.82;2.92;;;;;;;;;;6262679;28;20057;-63
2022/05/20 01:22:53;;;;;;;7.30;2.80;;;;;;;;;;6264571;28;20102;-61
2022/05/20 01:25:58;;;;;;;8.88;3.00;;;;;;;;;;6263490;28;20049;-59
2022/05/20 01:28:58;;;;;;;7.28;2.90;;;;;;;;;;6266692;28;20052;-60
2022/05/20 01:31:59;;;;;;;5.20;2.67;;;;;;;;;;6263695;28;20068;-64
2022/05/20 01:35:01;;;;;;;5.75;2.78;;;;;;;;;;6257739;28;20496;-63
2022/05/20 01:38:03;;;;;;;7.05;2.72;;;;;;;;;;6264846;28;20061;-60
2022/05/20 01:41:08;;;;;;;;;;;;;;;;;;6264519;28;20077;-61
2022/05/20 01:44:25;;;;;;;10.15;2.70;;;;;;;;;;6264910;28;19994;-51
2022/05/20 01:47:31;;;;;;;7.68;2.63;;;;;;;;;;6263605;28;20090;-58
2022/05/20 01:50:39;;;;;;;6.15;2.58;;;;;;;;;;6261495;28;20056;-52
2022/05/20 01:53:49;;;;;;;4.22;2.65;;;;;;;;;;6260985;28;20047;-57
2022/05/20 01:57:01;;;;;;;6.75;2.60;;;;;;;;;;6263680;28;20129;-56
2022/05/20 02:00:25;;;;;;;5.03;2.28;;;;;;;;;;6256022;28;20075;-58
2022/05/20 02:03:31;;;;;;;5.20;2.28;;;;;;;;;;6296096;28;20045;-61
2022/05/20 02:06:39;;;;;;;5.68;2.40;;;;;;;;;;6266937;28;20045;-59
2022/05/20 02:09:54;;;;;;;5.20;2.60;;;;;;;;;;6264178;28;20156;-58
2022/05/20 02:12:59;;;;;;;10.00;2.47;;;;;;;;;;6261301;28;20057;-57
2022/05/20 02:16:08;;;;;;;8.85;2.80;;;;;;;;;;6260091;28;20447;-52
2022/05/20 02:19:13;;;;;;;7.68;3.13;;;;;;;;;;6261007;28;20152;-57
2022/05/20 02:22:19;;;;;;;7.15;3.20;;;;;;;;;;6257303;28;20080;-61
2022/05/20 02:25:24;;;;;;;7.38;3.10;;;;;;;;;;6264311;28;20480;-61
2022/05/20 02:28:34;;;;;;;5.70;2.97;;;;;;;;;;6263150;28;20053;-54
2022/05/20 02:31:42;;;;;;;7.25;2.67;;;;;;;;;;6261857;28;20041;-54
2022/05/20 02:34:43;;;;;;;7.30;3.40;;;;;;;;;;6256997;28;20127;-62
2022/05/20 02:37:44;;;;;;;7.90;3.50;;;;;;;;;;6261310;28;20064;-52
2022/05/20 02:40:48;;;;;;;6.75;3.22;;;;;;;;;;6262275;28;20053;-62
2022/05/20 02:43:48;;;;;;;9.05;3.70;;;;;;;;;;6265383;28;20055;-55
2022/05/20 02:46:50;;;;;;;9.27;3.30;;;;;;;;;;6261411;28;20041;-60
2022/05/20 02:49:50;;;;;;;9.30;3.43;;;;;;;;;;6261017;28;20045;-64
2022/05/20 02:52:51;;;;;;;11.23;4.00;;;;;;;;;;6254501;28;20396;-60
2022/05/20 02:55:52;;;;;;;9.27;3.30;;;;;;;;;;6248818;28;20060;-57
2022/05/20 03:05:30;;;;;;;9.35;3.90;;;;;;;;;;6261225;28;20049;-52
2022/05/20 03:08:31;;;;;;;7.53;3.35;;;;;;;;;;6255796;28;20136;-54
2022/05/20 03:11:33;;;;;;;9.88;3.60;;;;;;;;;;6262983;28;20109;-60
2022/05/20 03:14:34;;;;;;;9.88;3.80;;;;;;;;;;6261750;28;20052;-62
2022/05/20 03:17:35;;;;;;;18.17;4.07;;;;;;;;;;6264286;28;20045;-57
2022/05/20 03:20:38;;;;;;;11.93;5.00;;;;;;;;;;6261887;28;20068;-53
2022/05/20 03:23:39;;;;;;;16.13;5.75;;;;;;;;;;6255426;28;20415;-63
2022/05/20 03:26:40;;;;;;;13.82;5.43;;;;;;;;;;6260776;28;20132;-54
2022/05/20 03:29:40;;;;;;;16.87;5.73;;;;;;;;;;6259804;28;20136;-62
2022/05/20 03:32:41;;;;;;;14.30;5.15;;;;;;;;;;6264692;28;20359;-51
2022/05/20 03:35:41;;;;;;;11.07;4.85;;;;;;;;;;6262528;28;20531;-59
2022/05/20 03:38:42;;;;;;;12.52;5.10;;;;;;;;;;6263790;28;20131;-58
2022/05/20 03:41:43;;;;;;;11.88;5.03;;;;;;;;;;6259882;28;20057;-61
2022/05/20 03:44:43;;;;;;;10.63;4.32;;;;;;;;;;6263469;28;20131;-59
2022/05/20 03:47:44;;;;;;;8.43;3.58;;;;;;;;;;6258748;28;20055;-53
2022/05/20 03:50:45;;;;;;;9.13;4.00;;;;;;;;;;6261609;28;20132;-52
2022/05/20 03:53:45;;;;;;;7.97;3.33;;;;;;;;;;6262287;28;20733;-58
2022/05/20 03:56:46;;;;;;;9.13;3.00;;;;;;;;;;6260100;28;20835;-57
2022/05/20 03:59:47;;;;;;;7.53;3.10;;;;;;;;;;6262219;28;20045;-62
2022/05/20 04:02:47;;;;;;;9.77;3.20;;;;;;;;;;6262866;28;20049;-60
2022/05/20 04:05:50;;;;;;;7.57;3.15;;;;;;;;;;6262265;28;20725;-54
2022/05/20 04:08:50;;;;;;;10.25;3.13;;;;;;;;;;6256066;28;20514;-61
2022/05/20 04:11:54;;;;;;;9.75;3.30;;;;;;;;;;6261586;28;20049;-55
2022/05/20 04:14:55;;;;;;;10.38;3.20;;;;;;;;;;6263093;28;20970;-61
2022/05/20 04:17:56;;;;;;;10.02;2.97;;;;;;;;;;6259305;28;20053;-53
2022/05/20 04:20:56;;;;;;;6.15;2.88;;;;;;;;;;6260993;28;20149;-58
2022/05/20 04:23:57;;;;;;;9.18;3.08;;;;;;;;;;6254543;28;20211;-58
2022/05/20 04:26:58;;;;;;;7.47;3.33;;;;;;;;;;6257094;28;20415;-61
2022/05/20 04:30:00;;;;;;;8.27;3.40;;;;;;;;;;6260792;28;20484;-60
2022/05/20 04:33:00;;;;;;;5.25;2.83;;;;;;;;;;6262755;28;20440;-62
2022/05/20 04:36:01;;;;;;;10.50;3.63;;;;;;;;;;6262496;28;20152;-68
2022/05/20 04:39:02;;;;;;;9.75;3.45;;;;;;;;;;6259066;28;20080;-67
2022/05/20 04:48:42;;;;;;;7.60;3.20;;;;;;;;;;6264549;28;20049;-60
2022/05/20 04:51:42;;;;;;;7.57;3.35;;;;;;;;;;6263982;28;20180;-57
2022/05/20 04:54:49;;;;;;;9.85;3.72;;;;;;;;;;6264465;28;20052;-54
2022/05/20 04:57:52;;;;;;;6.50;3.30;;;;;;;;;;6264088;28;20045;-60
2022/05/20 05:00:55;;;;;;;7.75;3.10;;;;;;;;;;6260111;28;20060;-58
2022/05/20 05:03:55;;;;;;;12.15;3.58;;;;;;;;;;6259524;28;20535;-60
2022/05/20 05:06:56;;;;;;;7.07;3.35;;;;;;;;;;6263420;28;20045;-55
2022/05/20 05:09:58;;;;;;;7.07;3.40;;;;;;;;;;6254703;28;20037;-54
2022/05/20 05:13:00;;;;;;;7.50;3.28;;;;;;;;;;6259016;28;20610;-59
2022/05/20 05:16:08;;;;;;;8.60;3.40;;;;;;;;;;6258448;28;20191;-55
2022/05/20 05:19:10;;;;;;;9.43;3.90;;;;;;;;;;6255774;28;20091;-61
2022/05/20 05:22:11;;;;;;;12.52;3.88;;;;;;;;;;6255225;28;20057;-60
2022/05/20 05:25:13;;;;;;;7.60;3.80;;;;;;;;;;6258604;28;20147;-58
2022/05/20 05:28:14;;;;;;;7.25;3.35;;;;;;;;;;6258916;28;20301;-55
2022/05/20 05:31:16;;;;;;;10.43;3.93;;;;;;;;;;6257999;28;20048;-61
2022/05/20 05:34:16;;;;;;;6.15;3.00;;;;;;;;;;6256553;28;20053;-62
2022/05/20 05:37:17;;;;;;;6.85;3.75;;;;;;;;;;6260512;28;20053;-55
2022/05/20 05:40:23;;;;;;;8.95;3.08;;;;;;;;;;6259408;28;20830;-57
2022/05/20 05:43:24;;;;;;;9.32;3.30;;;;;;;;;;6252174;28;20045;-60
2022/05/20 05:46:25;;;;;;;7.50;3.75;;;;;;;;;;6263177;28;20532;-63
2022/05/20 05:49:26;;;;;;;8.80;3.45;;;;;;;;;;6262356;28;20536;-60
2022/05/20 05:52:27;;;;;;;10.48;4.07;;;;;;;;;;6264867;28;20049;-60
2022/05/20 05:55:27;;;;;;;8.18;2.92;;;;;;;;;;6265813;28;20064;-61
2022/05/20 05:58:29;;;;;;;7.13;2.40;;;;;;;;;;6260694;28;20043;-61
2022/05/20 06:01:30;;;;;;;10.88;2.72;;;;;;;;;;6261334;28;20099;-61
2022/05/20 06:04:31;;;;;;;7.90;2.70;;;;;;;;;;6261887;28;20057;-58
2022/05/20 06:07:31;;;;;;;9.33;2.67;;;;;;;;;;6264807;28;20095;-57
2022/05/20 06:10:32;;;;;;;6.50;2.95;;;;;;;;;;6265218;28;20041;-61
2022/05/20 06:13:33;;;;;;;6.63;3.10;;;;;;;;;;6261446;28;20726;-61
2022/05/20 06:16:34;;;;;;;7.33;3.13;;;;;;;;;;6262031;28;20064;-55
2022/05/20 06:19:35;;;;;;;7.53;2.80;;;;;;;;;;6261882;28;20111;-61
2022/05/20 06:22:36;;;;;;;8.50;3.37;;;;;;;;;;6263875;28;20044;-60
2022/05/20 06:25:37;;;;;;;7.73;2.90;;;;;;;;;;6264155;28;20552;-58
2022/05/20 06:28:37;;;;;;;6.90;2.93;;;;;;;;;;6260301;28;20045;-59
2022/05/20 06:31:38;;;;;;;8.60;2.97;;;;;;;;;;6259699;28;20126;-61
2022/05/20 06:41:18;;;;;;;5.78;3.03;;;;;;;;;;6250185;28;20400;-62
2022/05/20 06:44:20;;;;;;;6.25;2.80;;;;;;;;;;6265847;28;20527;-61
2022/05/20 06:47:21;;;;;;;8.15;3.30;;;;;;;;;;6260068;28;20045;-61
2022/05/20 06:50:22;;;;;;;6.80;3.08;;;;;;;;;;6255813;28;20496;-62
2022/05/20 06:53:23;;;;;;;8.83;3.27;;;;;;;;;;6260997;28;20048;-60
2022/05/20 06:56:27;;;;;;;6.17;3.13;;;;;;;;;;6259905;28;20507;-57
2022/05/20 06:59:28;;;;;;;9.05;3.33;;;;;;;;;;6261480;28;20396;-58
2022/05/20 07:02:29;;;;;;;7.43;2.93;;;;;;;;;;6261382;28;20052;-60
2022/05/20 07:05:29;;;;;;;7.90;3.40;;;;;;;;;;6262105;28;20068;-61
2022/05/20 07:08:31;;;;;;;9.73;3.10;;;;;;;;;;6262983;28;20048;-61
2022/05/20 07:11:32;;;;;;;7.10;3.30;;;;;;;;;;6261145;28;20306;-61
2022/05/20 07:14:32;;;;;;;6.10;3.50;;;;;;;;;;6261910;28;20134;-58
2022/05/20 07:17:33;;;;;;;9.73;3.23;;;;;;;;;;6262027;28;20053;-59
2022/05/20 07:20:34;;;;;;;12.85;3.47;;;;;;;;;;6259718;28;20067;-59
2022/05/20 07:23:34;;;;;;;7.43;3.23;;;;;;;;;;6260301;28;20128;-58
2022/05/20 07:26:36;;;;;;;9.83;3.80;;;;;;;;;;6259021;28;20477;-59
2022/05/20 07:29:36;;;;;;;9.53;3.20;;;;;;;;;;6263097;28;20033;-59
2022/05/20 07:32:37;;;;;;;7.40;3.43;;;;;;;;;;6264394;28;20045;-59
2022/05/20 07:35:39;;;;;;;8.37;3.50;;;;;;;;;;6256098;28;20149;-59
2022/05/20 07:38:39;;;;;;;;;;;;;;;;;;6256138;28;20110;-61
2022/05/20 07:41:40;;;;;;;9.18;3.10;;;;;;;;;;6254950;28;19921;-58
2022/05/20 07:44:41;;;;;;;8.90;2.90;;;;;;;;;;6262432;28;20512;-59
2022/05/20 07:47:42;;;;;;;8.67;2.90;;;;;;;;;;6264160;28;20143;-59
2022/05/20 07:50:46;;;;;;;9.40;3.13;;;;;;;;;;6261740;28;20110;-58
2022/05/20 07:53:53;;;;;;;6.72;2.90;;;;;;;;;;6264002;28;20055;-56
2022/05/20 07:56:59;;;;;;;7.57;3.05;;;;;;;;;;6258683;28;20159;-54
2022/05/20 08:00:03;;;;;;;9.88;3.22;;;;;;;;;;6254045;28;20539;-56
2022/05/20 08:03:04;;;;;;;7.20;2.67;;;;;;;;;;6258017;28;20148;-62
2022/05/20 08:06:04;;;;;;;6.33;3.10;;;;;;;;;;6261277;28;20143;-61
2022/05/20 08:09:06;;;;;;;5.13;3.23;;;;;;;;;;6263326;28;20053;-56
2022/05/20 08:12:07;;;;;;;6.70;3.10;;;;;;;;;;6260623;28;20110;-61
2022/05/20 08:15:09;;;;;;;6.93;2.90;;;;;;;;;;6262631;28;20052;-57
2022/05/20 08:18:10;;;;;;;10.90;3.00;;;;;;;;;;6259084;28;20069;-59
2022/05/20 08:21:10;;;;;;;6.70;3.10;;;;;;;;;;6261733;28;20579;-58
2022/05/20 08:24:11;;;;;;;9.33;2.97;;;;;;;;;;6253973;28;20081;-57
2022/05/20 08:27:11;;;;;;;8.30;3.10;;;;;;;;;;6263215;28;20049;-57
2022/05/20 08:30:21;;;;;;;9.87;3.20;;;;;;;;;;6254129;28;20078;-61
2022/05/20 08:33:22;;;;;;;7.82;3.20;;;;;;;;;;6253106;28;20079;-58
2022/05/20 08:36:22;;;;;;;8.73;3.30;;;;;;;;;;6259830;28;20528;-55
2022/05/20 08:39:23;;;;;;;6.77;3.13;;;;;;;;;;6262018;28;20072;-53
2022/05/20 08:42:27;;;;;;;7.33;3.53;;;;;;;;;;6258341;28;20119;-56
2022/05/20 08:45:30;;;;;;;10.95;3.25;;;;;;;;;;6252789;28;20083;-61
2022/05/20 08:48:31;;;;;;;9.02;3.33;;;;;;;;;;6257258;28;20040;-58
2022/05/20 08:51:33;;;;;;;8.20;3.47;;;;;;;;;;6257949;28;20041;-60
2022/05/20 08:54:33;;;;;;;7.32;3.20;;;;;;;;;;6261659;28;20049;-56
2022/05/20 08:57:35;;;;;;;6.23;3.27;;;;;;;;;;6258795;28;20075;-62
2022/05/20 09:00:35;;;;;;;5.18;3.80;;;;;;;;;;6252021;28;20045;-56
2022/05/20 09:03:36;;;;;;;8.27;3.30;;;;;;;;;;6251607;28;20041;-62
2022/05/20 09:07:00;;;;;;;10.67;3.50;;;;;;;;;;6259119;28;20160;-62
2022/05/20 09:10:01;;;;;;;11.00;3.40;;;;;;;;;;6258679;28;20102;-53
2022/05/20 09:13:12;;;;;;;15.40;3.73;;;;;;;;;;6253609;28;20540;-58
2022/05/20 09:16:15;;;;;;;7.90;3.72;;;;;;;;;;6253162;28;20049;-57
2022/05/20 09:19:25;;;;;;;7.45;3.35;;;;;;;;;;6258924;28;20048;-61
2022/05/20 09:22:29;;;;;;;8.38;4.13;;;;;;;;;;6257547;28;20064;-62
2022/05/20 09:25:33;;;;;;;6.85;3.60;;;;;;;;;;6261521;28;20610;-61
2022/05/20 09:28:37;;;;;;;11.27;3.70;;;;;;;;;;6265762;28;20129;-60
2022/05/20 09:31:51;;;;;;;6.45;3.42;;;;;;;;;;6257992;28;20475;-57
2022/05/20 09:35:18;;;;;;;8.30;3.25;;;;;;;;;;6265365;28;20045;-62
2022/05/20 09:38:31;;;;;;;6.75;3.13;;;;;;;;;;6264507;28;20085;-58
2022/05/20 09:41:33;;;;;;;7.38;3.13;;;;;;;;;;6255377;28;20136;-58
2022/05/20 09:44:41;;;;;;;6.60;3.00;;;;;;;;;;6262138;28;20064;-56
2022/05/20 09:47:50;;;;;;;9.02;3.42;;;;;;;;;;6260804;28;20082;-62
2022/05/20 09:51:13;;;;;;;10.88;3.40;;;;;;;;;;6266498;28;20055;-60
2022/05/20 09:54:29;;;;;;;5.72;3.30;;;;;;;;;;6264291;28;20444;-59
2022/05/20 09:57:38;;;;;;;6.35;3.55;;;;;;;;;;6257416;28;20053;-58
2022/05/20 10:00:43;;;;;;;7.93;3.55;;;;;;;;;;6263320;28;20478;-56
2022/05/20 10:03:46;;;;;;;6.60;3.08;;;;;;;;;;6263008;28;20052;-60
2022/05/20 10:06:53;;;;;;;9.82;3.50;;;;;;;;;;6264303;28;20065;-61
2022/05/20 10:10:01;;;;;;;5.30;2.95;;;;;;;;;;6264572;28;20045;-57
2022/05/20 10:13:06;;;;;;;7.50;3.30;;;;;;;;;;6259718;28;20045;-58
2022/05/20 10:16:41;;;;;;;7.75;2.97;;;;;;;;;;6264699;28;20051;-59
2022/05/20 10:19:58;;;;;;;6.28;3.15;;;;;;;;;;6266709;28;20056;-60
2022/05/20 10:23:28;;;;;;;10.68;3.70;;;;;;;;;;6262133;28;20523;-61
2022/05/20 10:26:53;;;;;;;5.30;3.17;;;;;;;;;;6253592;28;20492;-61
2022/05/20 10:33:32;;;;;;;7.88;3.53;;;;;;;;;;6260891;28;20567;-62
2022/05/20 10:36:43;;;;;;;;;;;;;;;;;;6262440;28;20091;-62
2022/05/20 10:39:55;;;;;;;7.30;3.50;;;;;;;;;;6262593;28;20354;-59
2022/05/20 10:43:12;;;;;;;5.65;2.83;;;;;;;;;;6258413;28;20603;-60
2022/05/20 10:49:34;;;;;;;6.38;2.90;;;;;;;;;;6263517;28;20056;-62
2022/05/20 10:53:10;;;;;;;7.17;3.27;;;;;;;;;;6255898;28;20049;-64
2022/05/20 10:56:30;;;;;;;7.10;3.20;;;;;;;;;;6254840;28;20045;-62
2022/05/20 10:59:49;;;;;;;6.25;3.45;;;;;;;;;;6254371;28;20069;-59
2022/05/20 11:03:05;;;;;;;5.57;2.72;;;;;;;;;;6261438;28;20061;-61
2022/05/20 11:06:39;;;;;;;7.53;3.17;;;;;;;;;;6262293;28;20080;-60
2022/05/20 11:10:24;;;;;;;7.43;3.55;;;;;;;;;;6259304;28;20053;-64
2022/05/20 11:13:41;;;;;;;6.60;3.38;;;;;;;;;;6229889;28;20073;-61
2022/05/20 11:17:05;;;;;;;7.30;3.63;;;;;;;;;;6237750;28;20065;-61
2022/05/20 11:20:18;;;;;;;6.85;3.08;;;;;;;;;;6264305;28;20056;-62
2022/05/20 11:23:39;;;;;;;7.32;3.10;;;;;;;;;;6262390;28;20048;-62
2022/05/20 11:26:44;;;;;;;6.25;2.78;;;;;;;;;;6262780;28;20140;-62
2022/05/20 11:29:45;;;;;;;7.35;3.28;;;;;;;;;;6261261;28;20047;-60
2022/05/20 11:33:28;;;;;;;7.60;2.93;;;;;;;;;;6259933;28;20128;-61
2022/05/20 11:36:56;;;;;;;7.28;3.17;;;;;;;;;;6258028;28;20041;-62
2022/05/20 11:40:20;;;;;;;5.80;2.97;;;;;;;;;;6260871;28;20398;-62
2022/05/20 11:43:42;;;;;;;6.05;3.40;;;;;;;;;;6260050;28;20049;-62
2022/05/20 11:47:12;;;;;;;9.57;3.30;;;;;;;;;;6263751;28;20128;-63
2022/05/20 11:50:58;;;;;;;7.10;2.70;;;;;;;;;;6255259;28;20075;-63
2022/05/20 11:54:10;;;;;;;5.18;2.90;;;;;;;;;;6262624;28;20049;-63
2022/05/20 11:57:18;;;;;;;4.05;2.70;;;;;;;;;;6260989;28;20127;-62
2022/05/20 12:00:21;;;;;;;5.57;2.92;;;;;;;;;;6250150;28;21108;-64
2022/05/20 12:03:27;;;;;;;6.05;3.00;;;;;;;;;;6258830;28;20073;-63
2022/05/20 12:06:30;;;;;;;5.75;3.00;;;;;;;;;;6256097;28;20083;-63
2022/05/20 12:09:35;;;;;;;9.50;3.20;;;;;;;;;;6258272;28;20466;-64
2022/05/20 12:13:09;;;;;;;7.57;3.70;;;;;;;;;;6264227;28;20037;-60
2022/05/20 12:16:12;;;;;;;7.82;3.20;;;;;;;;;;6263973;28;20407;-62
2022/05/20 12:26:47;;;;;;;7.88;3.95;;;;;;;;;;6259557;28;20615;-63
2022/05/20 12:30:06;;;;;;;10.45;3.20;;;;;;;;;;6259561;28;20048;-64
2022/05/20 12:33:24;;;;;;;6.65;3.45;;;;;;;;;;6260481;28;20064;-64
2022/05/20 12:36:27;;;;;;;6.55;3.20;;;;;;;;;;6263697;28;20408;-60
2022/05/20 12:39:50;;;;;;;7.40;3.70;;;;;;;;;;6261402;28;20073;-62
2022/05/20 12:42:58;;;;;;;8.25;3.50;;;;;;;;;;6262769;28;20053;-61
2022/05/20 12:45:59;;;;;;;5.95;3.50;;;;;;;;;;6260287;28;20088;-60
2022/05/20 12:48:59;;;;;;;9.50;3.50;;;;;;;;;;6259490;28;20111;-63
2022/05/20 12:52:20;;;;;;;7.10;3.70;;;;;;;;;;6259101;28;20049;-62
2022/05/20 12:55:24;;;;;;;9.07;3.70;;;;;;;;;;6259497;28;20485;-61
2022/05/20 12:58:28;;;;;;;9.27;4.00;;;;;;;;;;6260702;28;20056;-62
2022/05/20 13:01:29;;;;;;;6.18;3.53;;;;;;;;;;6262823;28;20048;-58
2022/05/20 13:04:38;;;;;;;9.13;3.53;;;;;;;;;;6267790;28;20689;-62
2022/05/20 13:07:42;;;;;;;7.68;3.70;;;;;;;;;;6264197;28;20056;-61
2022/05/20 13:10:43;;;;;;;6.32;3.47;;;;;;;;;;6265212;28;20460;-61
2022/05/20 13:13:45;;;;;;;7.38;3.50;;;;;;;;;;6261096;28;20053;-62
2022/05/20 13:16:48;;;;;;;5.80;3.75;;;;;;;;;;6265250;28;20045;-63
2022/05/20 13:19:54;;;;;;;8.55;4.00;;;;;;;;;;6265844;28;20049;-61
2022/05/20 13:22:59;;;;;;;7.88;3.70;;;;;;;;;;6265512;28;20095;-58
2022/05/20 13:26:00;;;;;;;8.65;3.70;;;;;;;;;;6263841;28;20139;-62
2022/05/20 13:29:11;;;;;;;8.30;3.83;;;;;;;;;;6265542;28;20068;-63
2022/05/20 13:32:27;;;;;;;5.38;3.90;;;;;;;;;;6253267;28;20055;-61
2022/05/20 13:35:28;;;;;;;9.23;3.50;;;;;;;;;;6263626;28;20104;-64
2022/05/20 13:38:32;;;;;;;5.65;3.65;;;;;;;;;;6264788;28;20510;-61
2022/05/20 13:41:34;;;;;;;8.50;3.80;;;;;;;;;;6254658;28;20041;-62
2022/05/20 13:44:34;;;;;;;9.55;3.88;;;;;;;;;;6263194;28;20081;-61
2022/05/20 13:50:56;;;;;;;5.57;3.72;;;;;;;;;;6263824;28;20500;-62
2022/05/20 13:54:00;;;;;;;6.68;3.70;;;;;;;;;;6266202;28;20052;-62
2022/05/20 13:57:03;;;;;;;6.18;3.70;;;;;;;;;;6265366;28;20560;-64
2022/05/20 14:00:19;;;;;;;7.72;3.60;;;;;;;;;;6256841;28;20068;-64
2022/05/20 14:03:42;;;;;;;5.95;3.60;;;;;;;;;;6262714;28;20049;-62
2022/05/20 14:06:43;;;;;;;5.53;3.60;;;;;;;;;;6262183;28;20140;-63
2022/05/20 14:09:52;;;;;;;7.20;3.57;;;;;;;;;;6261773;28;20407;-62
2022/05/20 14:13:07;;;;;;;5.57;3.67;;;;;;;;;;6265630;28;20309;-62
2022/05/20 14:16:11;;;;;;;7.00;3.47;;;;;;;;;;6258831;28;20044;-63
2022/05/20 14:19:24;;;;;;;6.13;3.10;;;;;;;;;;6256027;28;20048;-61
2022/05/20 14:22:28;;;;;;;5.65;3.30;;;;;;;;;;6254256;28;20409;-63
2022/05/20 14:25:31;;;;;;;5.50;3.33;;;;;;;;;;6261693;28;20079;-64
2022/05/20 14:28:45;;;;;;;5.43;3.53;;;;;;;;;;6248023;28;20136;-63
2022/05/20 14:31:53;;;;;;;6.28;3.42;;;;;;;;;;6264385;28;20501;-64
2022/05/20 14:34:58;;;;;;;6.20;3.80;;;;;;;;;;6252680;28;20064;-63
2022/05/20 14:38:02;;;;;;;7.30;3.45;;;;;;;;;;6256759;28;20144;-64
2022/05/20 14:41:03;;;;;;;9.27;3.60;;;;;;;;;;6234444;28;20049;-60
2022/05/20 14:44:07;;;;;;;7.20;3.60;;;;;;;;;;6251959;28;20103;-60
2022/05/20 14:47:32;;;;;;;6.65;3.45;;;;;;;;;;6246755;28;20091;-60
2022/05/20 14:50:34;;;;;;;6.55;3.60;;;;;;;;;;6253757;28;20069;-61
2022/05/20 14:53:40;;;;;;;5.18;3.17;;;;;;;;;;6252576;28;20045;-56
2022/05/20 14:56:47;;;;;;;8.23;3.50;;;;;;;;;;6252057;28;20071;-61
2022/05/20 15:00:19;;;;;;;7.55;3.53;;;;;;;;;;6253343;28;20063;-63
2022/05/20 15:03:21;;;;;;;6.68;3.40;;;;;;;;;;6254531;28;20135;-63
2022/05/20 15:06:27;;;;;;;7.03;3.33;;;;;;;;;;6252377;28;20120;-61
2022/05/20 15:09:33;;;;;;;5.88;3.75;;;;;;;;;;6251991;28;20587;-61
2022/05/20 15:12:34;;;;;;;6.13;3.33;;;;;;;;;;6254874;28;20126;-61
2022/05/20 15:15:35;;;;;;;7.97;3.53;;;;;;;;;;6251922;28;20053;-55
2022/05/20 15:18:36;;;;;;;6.70;3.47;;;;;;;;;;6252924;28;20303;-57
2022/05/20 15:21:39;;;;;;;6.97;3.28;;;;;;;;;;6250494;28;20351;-52
2022/05/20 15:24:44;;;;;;;5.65;3.25;;;;;;;;;;6251364;28;20051;-52
2022/05/20 15:27:45;;;;;;;6.35;3.45;;;;;;;;;;6251357;28;20126;-61
2022/05/20 15:30:46;;;;;;;6.53;3.15;;;;;;;;;;6252538;28;20412;-62
2022/05/20 15:37:10;;;;;;;10.98;3.85;;;;;;;;;;6253540;28;20301;-64
2022/05/20 15:40:20;;;;;;;11.90;3.55;;;;;;;;;;6257185;28;20531;-61
2022/05/20 15:43:20;;;;;;;13.35;3.50;;;;;;;;;;6257828;28;20053;-64
2022/05/20 15:46:21;;;;;;;8.97;3.67;;;;;;;;;;6253663;28;20045;-63
2022/05/20 15:49:22;;;;;;;8.27;3.40;;;;;;;;;;6256643;28;20049;-62
2022/05/20 15:52:26;;;;;;;8.43;4.13;;;;;;;;;;6255709;28;20186;-66
2022/05/20 15:55:38;;;;;;;6.28;3.40;;;;;;;;;;6253765;28;20363;-68
2022/05/20 15:58:39;;;;;;;10.60;4.18;;;;;;;;;;6255820;28;20088;-69
2022/05/20 16:01:40;;;;;;;6.20;4.18;;;;;;;;;;6255871;28;20063;-70
2022/05/20 16:04:41;;;;;;;6.60;4.00;;;;;;;;;;6255203;28;20048;-68
2022/05/20 16:07:43;;;;;;;10.65;4.13;;;;;;;;;;6254149;28;20116;-62
2022/05/20 16:10:48;;;;;;;6.28;3.92;;;;;;;;;;6253355;28;20652;-59
2022/05/20 16:13:48;;;;;;;6.32;3.80;;;;;;;;;;6257355;28;20553;-59
2022/05/20 16:16:49;;;;;;;10.38;3.90;;;;;;;;;;6255264;28;20074;-59
2022/05/20 16:19:50;;;;;;;7.50;3.60;;;;;;;;;;6255801;28;20476;-65
2022/05/20 16:22:52;;;;;;;6.78;3.90;;;;;;;;;;6255154;28;20064;-67
2022/05/20 16:25:58;;;;;;;8.52;4.15;;;;;;;;;;6253840;28;21644;-64
2022/05/20 16:28:59;;;;;;;9.77;4.10;;;;;;;;;;6256279;28;20243;-77
2022/05/20 16:31:59;;;;;;;6.80;3.97;;;;;;;;;;6254552;28;20684;-67
2022/05/20 16:35:00;;;;;;;9.25;4.35;;;;;;;;;;6255874;28;20309;-67
2022/05/20 16:38:08;;;;;;;7.15;3.78;;;;;;;;;;6254030;28;20061;-60
2022/05/20 16:41:12;;;;;;;8.23;3.80;;;;;;;;;;6254192;28;20052;-69
2022/05/20 16:44:12;;;;;;;5.90;3.60;;;;;;;;;;6256431;28;20563;-66
2022/05/20 16:47:13;;;;;;;5.88;3.90;;;;;;;;;;6250080;28;20049;-67
2022/05/20 16:50:16;;;;;;;9.18;4.30;;;;;;;;;;6252949;28;20057;-64
2022/05/20 16:53:18;;;;;;;7.25;4.35;;;;;;;;;;6254360;28;20601;-61
2022/05/20 17:02:57;;;;;;;9.88;4.90;;;;;;;;;;6253447;28;20265;-64
2022/05/20 17:05:58;;;;;;;8.43;4.70;;;;;;;;;;6251895;28;20053;-63
2022/05/20 17:09:00;;;;;;;8.13;4.90;;;;;;;;;;6255196;28;20478;-64
2022/05/20 17:12:01;;;;;;;9.02;4.60;;;;;;;;;;6255530;28;20053;-62
2022/05/20 17:15:03;;;;;;;11.97;5.33;;;;;;;;;;6254524;28;20523;-64
2022/05/20 17:18:04;;;;;;;9.52;4.70;;;;;;;;;;6252814;28;20130;-63
2022/05/20 17:24:21;;;;;;;7.35;4.68;;;;;;;;;;6253379;28;20498;-64
2022/05/20 17:24:31;;;;;;;7.67;4.90;;;;;;;;;;6254371;28;20057;-62
2022/05/20 17:27:32;;;;;;;8.88;4.82;;;;;;;;;;6252562;28;21937;-66
2022/05/20 17:30:33;;;;;;;8.40;4.40;;;;;;;;;;6253974;28;20049;-61
2022/05/20 17:33:34;;;;;;;9.20;4.50;;;;;;;;;;6254162;28;20052;-62
2022/05/20 17:36:34;;;;;;;8.25;4.10;;;;;;;;;;6251521;28;20103;-63
2022/05/20 17:39:35;;;;;;;9.30;4.90;;;;;;;;;;6254612;28;20041;-61
2022/05/20 17:42:36;;;;;;;10.27;5.57;;;;;;;;;;6256545;28;20451;-64
2022/05/20 17:45:37;;;;;;;8.67;4.90;;;;;;;;;;6256072;28;20127;-64
2022/05/20 17:48:37;;;;;;;12.52;4.85;;;;;;;;;;6259096;28;20049;-60
2022/05/20 17:51:38;;;;;;;8.90;4.50;;;;;;;;;;6258393;28;20049;-64
2022/05/20 17:54:40;;;;;;;15.05;5.50;;;;;;;;;;6258326;28;20076;-65
2022/05/20 17:57:41;;;;;;;24.77;14.73;;;;;;;;;;6256594;28;20060;-59
2022/05/20 18:00:41;;;;;;;40.53;23.27;;;;;;;;;;6258184;28;20075;-63
2022/05/20 18:03:44;;;;;;;45.27;30.50;;;;;;;;;;6258533;28;20306;-65
2022/05/20 18:06:45;;;;;;;38.08;23.90;;;;;;;;;;6255415;28;20076;-65
2022/05/20 18:09:45;;;;;;;58.40;36.10;;;;;;;;;;6258210;28;20049;-65
2022/05/20 18:12:46;;;;;;;47.10;28.23;;;;;;;;;;6258350;28;20060;-65
2022/05/20 18:15:47;;;;;;;40.70;27.17;;;;;;;;;;6256133;28;20056;-64
2022/05/20 18:18:48;;;;;;;50.83;32.97;;;;;;;;;;6258318;28;20044;-64
2022/05/20 18:21:48;;;;;;;70.17;50.00;;;;;;;;;;6256630;28;20045;-65
2022/05/20 18:24:52;;;;;;;160.23;111.37;;;;;;;;;;6257726;28;20126;-66
2022/05/20 18:27:53;;;;;;;157.63;112.38;;;;;;;;;;6256558;28;20852;-65
2022/05/20 18:30:55;;;;;;;149.32;102.07;;;;;;;;;;6257434;28;20049;-64
2022/05/20 18:33:55;;;;;;;85.65;55.72;;;;;;;;;;6257858;28;20507;-59
2022/05/20 18:40:16;;;;;;;24.50;16.42;;;;;;;;;;6257847;28;20078;-59
2022/05/20 18:43:17;;;;;;;21.23;13.05;;;;;;;;;;6257335;28;20111;-61
2022/05/20 18:46:17;;;;;;;12.90;9.07;;;;;;;;;;6255271;28;20052;-63
2022/05/20 18:49:18;;;;;;;12.43;7.37;;;;;;;;;;6257866;28;20060;-64
2022/05/20 18:52:19;;;;;;;12.93;7.70;;;;;;;;;;6257666;28;20155;-61
2022/05/20 18:55:21;;;;;;;14.15;6.68;;;;;;;;;;6252000;28;20700;-63
2022/05/20 18:58:22;;;;;;;15.27;7.93;;;;;;;;;;6256114;28;20067;-63
2022/05/20 19:01:23;;;;;;;12.23;6.97;;;;;;;;;;6256818;28;20053;-66
2022/05/20 19:04:23;;;;;;;10.13;5.80;;;;;;;;;;6256385;28;20106;-67
2022/05/20 19:07:24;;;;;;;10.20;6.03;;;;;;;;;;6254973;28;20063;-63
2022/05/20 19:10:24;;;;;;;9.80;6.03;;;;;;;;;;6255404;28;20523;-66
2022/05/20 19:13:25;;;;;;;9.27;6.07;;;;;;;;;;6256782;28;20431;-63
2022/05/20 19:16:26;;;;;;;13.20;6.80;;;;;;;;;;6253963;28;20057;-66
2022/05/20 19:19:27;;;;;;;9.82;6.63;;;;;;;;;;6256664;28;20057;-64